Time;durP1;ratioP1;P1;durP2;ratioP2;P2;SDS_P1;SDS_P2;PMS_P1;PMS_P2;Temp;Humidity;BMP_temperature;BMP_pressure;BME280_temperature;BME280_humidity;BME280_pressure;Samples;Min_cycle;Max_cycle;Signal;HPM_P1;HPM_P2
2022/06/28 00:00:36;;;;;;;4.47;4.22;;;;;;;21.25;70.08;98861.28;2058244;85;21510;-87
2022/06/28 00:03:39;;;;;;;5.20;4.60;;;;;;;21.16;70.60;98860.09;2050742;85;21070;-86
2022/06/28 00:06:44;;;;;;;7.17;5.25;;;;;;;21.10;71.25;98854.93;2031147;85;21511;-87
2022/06/28 00:09:50;;;;;;;5.70;4.72;;;;;;;21.04;71.84;98846.61;2035489;85;21113;-88
2022/06/28 00:12:55;;;;;;;5.75;5.25;;;;;;;20.95;73.95;98850.20;2043596;85;21082;-88
2022/06/28 00:16:05;;;;;;;5.33;4.80;;;;;;;20.87;73.48;98851.41;2073793;85;21057;-88
2022/06/28 00:19:06;;;;;;;6.47;5.30;;;;;;;20.83;74.63;98848.13;2073463;84;21109;-88
2022/06/28 00:22:06;;;;;;;5.80;5.30;;;;;;;20.81;75.20;98857.70;2072669;84;21045;-88
2022/06/28 00:25:07;;;;;;;5.80;5.30;;;;;;;20.79;74.18;98850.48;2065337;84;21566;-88
2022/06/28 00:28:08;;;;;;;11.65;5.75;;;;;;;20.77;75.27;98851.25;2038453;86;21034;-87
2022/06/28 00:31:08;;;;;;;6.03;5.42;;;;;;;20.72;76.02;98842.66;2042046;86;21058;-87
2022/06/28 00:34:09;;;;;;;4.92;4.28;;;;;;;20.67;76.22;98851.90;2045955;85;21062;-88
2022/06/28 00:37:10;;;;;;;5.20;4.70;;;;;;;20.64;76.10;98847.57;2047973;85;21103;-87
2022/06/28 00:40:11;;;;;;;5.70;5.00;;;;;;;20.62;76.26;98849.14;2047815;84;21561;-88
2022/06/28 00:43:11;;;;;;;5.53;4.72;;;;;;;20.54;77.11;98842.08;2054122;84;21023;-89
2022/06/28 00:46:12;;;;;;;5.17;4.85;;;;;;;20.55;77.32;98850.34;2018940;87;21136;-88
2022/06/28 00:49:13;;;;;;;5.55;5.15;;;;;;;20.52;77.59;98862.28;2044279;84;21037;-88
2022/06/28 00:52:13;;;;;;;5.97;5.37;;;;;;;20.48;77.49;98857.14;2057589;85;21095;-88
2022/06/28 00:55:14;;;;;;;5.28;4.92;;;;;;;20.44;77.70;98852.03;2074953;84;21072;-87
2022/06/28 00:58:15;;;;;;;5.83;5.42;;;;;;;20.37;78.45;98852.67;2058918;84;21085;-89
2022/06/28 01:01:15;;;;;;;6.55;4.78;;;;;;;20.31;78.30;98858.44;2052817;85;22113;-87
2022/06/28 01:04:16;;;;;;;5.20;4.90;;;;;;;20.26;78.86;98853.54;2050484;85;21100;-89
2022/06/28 01:07:16;;;;;;;6.97;5.05;;;;;;;20.23;79.80;98846.86;2054355;85;21087;-88
2022/06/28 01:10:17;;;;;;;6.03;5.42;;;;;;;20.21;80.06;98838.81;2055104;84;21022;-88
2022/06/28 01:13:18;;;;;;;6.10;5.50;;;;;;;20.17;79.81;98841.16;2052612;85;21097;-89
2022/06/28 01:16:20;;;;;;;6.90;6.15;;;;;;;20.14;80.83;98842.97;2053052;85;21068;-87
2022/06/28 01:19:20;;;;;;;5.90;5.40;;;;;;;20.12;82.56;98841.88;2051848;86;21704;-87
2022/06/28 01:22:21;;;;;;;5.75;5.22;;;;;;;20.05;81.29;98840.41;2055868;85;21062;-89
2022/06/28 01:25:22;;;;;;;5.95;5.45;;;;;;;20.00;82.01;98841.63;2053387;85;21149;-88
2022/06/28 01:28:22;;;;;;;6.53;5.22;;;;;;;19.97;82.18;98836.80;2059207;85;21029;-87
2022/06/28 01:31:23;;;;;;;10.18;5.42;;;;;;;19.95;83.52;98835.71;2060318;85;21025;-89
2022/06/28 01:34:24;;;;;;;5.72;5.33;;;;;;;19.93;82.43;98836.97;2060248;84;21540;-88
2022/06/28 01:37:24;;;;;;;6.35;5.47;;;;;;;19.92;83.34;98838.82;2051707;85;21038;-87
2022/06/28 01:40:25;;;;;;;6.03;5.42;;;;;;;19.90;83.43;98851.55;2048235;85;20979;-88
2022/06/28 01:43:25;;;;;;;5.62;5.15;;;;;;;19.90;83.43;98851.55;2047141;85;21065;-88
2022/06/28 01:46:26;;;;;;;5.80;5.20;;;;;;;19.89;83.47;98851.26;2051014;86;21083;-87
2022/06/28 01:49:27;;;;;;;5.78;5.28;;;;;;;19.87;84.14;98849.37;2039484;85;21073;-88
2022/06/28 01:52:28;;;;;;;8.15;4.80;;;;;;;19.84;84.06;98859.12;2038469;86;21128;-88
2022/06/28 01:55:28;;;;;;;5.58;5.17;;;;;;;19.81;84.49;98862.26;2051893;86;21110;-87
2022/06/28 01:58:29;;;;;;;5.75;5.35;;;;;;;19.79;84.60;98864.34;2043455;85;21336;-88
2022/06/28 02:01:29;;;;;;;6.42;5.12;;;;;;;19.77;84.81;98864.59;2052848;85;21056;-87
2022/06/28 02:04:30;;;;;;;5.83;5.30;;;;;;;19.75;85.31;98856.05;2052857;85;21085;-87
2022/06/28 02:07:31;;;;;;;6.35;5.85;;;;;;;19.73;85.12;98862.62;2053314;85;21006;-87
2022/06/28 02:10:31;;;;;;;7.00;5.30;;;;;;;19.70;85.57;98865.76;2058986;84;21046;-89
2022/06/28 02:13:32;;;;;;;5.60;5.15;;;;;;;19.69;85.32;98872.92;2051774;84;21089;-87
2022/06/28 02:16:32;;;;;;;6.30;5.80;;;;;;;19.70;85.44;98874.53;2062755;84;21117;-88
2022/06/28 02:19:33;;;;;;;6.72;6.12;;;;;;;19.72;85.78;98870.31;2048918;85;21570;-88
2022/06/28 02:22:34;;;;;;;5.97;5.58;;;;;;;19.73;85.72;98871.39;2049501;85;21034;-88
2022/06/28 02:25:34;;;;;;;6.65;5.95;;;;;;;19.74;85.99;98873.53;2049324;85;21795;-87
2022/06/28 02:28:35;;;;;;;6.72;6.12;;;;;;;19.73;85.87;98871.92;2057986;85;21057;-87
2022/06/28 02:31:36;;;;;;;7.15;6.47;;;;;;;19.69;86.44;98869.45;2059783;85;21050;-88
2022/06/28 02:41:15;;;;;;;9.50;6.25;;;;;;;19.59;87.12;98877.50;2067875;85;21077;-88
2022/06/28 02:44:16;;;;;;;6.55;5.75;;;;;;;19.62;87.11;98878.07;2065482;85;21088;-87
2022/06/28 02:47:17;;;;;;;7.33;6.62;;;;;;;19.63;87.31;98881.81;2062458;85;21021;-87
2022/06/28 02:50:17;;;;;;;6.47;5.87;;;;;;;19.66;87.47;98892.48;2061236;85;21025;-88
2022/06/28 02:53:18;;;;;;;7.20;6.00;;;;;;;19.68;87.73;98899.20;2050164;84;21134;-87
2022/06/28 02:56:19;;;;;;;5.80;5.30;;;;;;;19.71;87.56;98886.77;2058800;85;21042;-87
2022/06/28 02:59:20;;;;;;;5.95;5.55;;;;;;;19.76;87.50;98889.55;2045314;84;21038;-87
2022/06/28 03:02:20;;;;;;;6.50;5.90;;;;;;;19.86;87.49;98886.28;2039578;85;21097;-88
2022/06/28 03:05:21;;;;;;;7.10;6.60;;;;;;;20.05;87.32;98889.58;2071326;84;20998;-88
2022/06/28 03:08:21;;;;;;;9.00;6.28;;;;;;;20.27;86.63;98891.04;2069724;84;21057;-88
2022/06/28 03:11:22;;;;;;;6.17;5.58;;;;;;;20.46;86.35;98883.17;2035061;85;21090;-88
2022/06/28 03:14:23;;;;;;;7.92;5.40;;;;;;;20.71;85.63;98890.79;2040904;84;21081;-89
2022/06/28 03:17:24;;;;;;;6.17;5.78;;;;;;;20.95;84.85;98884.80;2053264;86;21068;-89
2022/06/28 03:20:24;;;;;;;7.17;6.47;;;;;;;21.09;84.01;98889.26;2057820;84;21055;-88
2022/06/28 03:23:25;;;;;;;7.03;6.33;;;;;;;21.17;83.40;98887.52;2056907;85;21532;-89
2022/06/28 03:26:26;;;;;;;10.80;6.12;;;;;;;21.38;83.06;98892.63;2053279;85;21093;-89
2022/06/28 03:29:27;;;;;;;5.72;5.20;;;;;;;21.68;81.99;98890.40;2044814;84;21076;-88
2022/06/28 03:32:27;;;;;;;5.75;5.35;;;;;;;21.96;80.98;98884.08;2036291;86;21099;-88
2022/06/28 03:35:28;;;;;;;7.70;5.40;;;;;;;22.23;79.60;98891.33;2048828;85;21069;-86
2022/06/28 03:38:28;;;;;;;5.05;4.58;;;;;;;22.54;78.35;98887.09;2057287;85;21085;-84
2022/06/28 03:41:29;;;;;;;5.92;5.30;;;;;;;22.81;77.24;98885.19;2034726;86;21088;-86
2022/06/28 03:44:30;;;;;;;6.03;5.50;;;;;;;23.07;75.98;98894.77;2014159;86;21065;-85
2022/06/28 03:47:31;;;;;;;5.72;5.22;;;;;;;23.33;74.95;98890.41;2007129;86;21051;-86
2022/06/28 03:50:32;;;;;;;5.70;5.05;;;;;;;23.46;73.82;98893.41;2001790;86;21129;-87
2022/06/28 03:53:32;;;;;;;6.75;5.10;;;;;;;23.66;71.05;98886.59;2040833;85;21061;-87
2022/06/28 03:56:33;;;;;;;5.28;4.90;;;;;;;23.81;71.42;98894.16;2060207;85;20987;-86
2022/06/28 03:59:35;;;;;;;5.25;4.95;;;;;;;24.08;70.87;98893.18;2059035;85;21025;-83
2022/06/28 04:02:36;;;;;;;6.62;5.03;;;;;;;24.32;68.78;98892.19;2065423;84;21061;-83
2022/06/28 04:05:37;;;;;;;6.50;4.90;;;;;;;24.48;67.34;98887.67;2050463;85;21078;-87
2022/06/28 04:08:37;;;;;;;5.35;4.85;;;;;;;24.69;67.10;98885.30;2045932;85;21737;-91
2022/06/28 04:11:38;;;;;;;5.72;5.40;;;;;;;24.99;67.05;98893.05;2055765;86;21065;-91
2022/06/28 04:14:39;;;;;;;5.30;4.80;;;;;;;25.35;65.19;98887.14;2039851;84;21070;-90
2022/06/28 04:17:41;;;;;;;5.42;5.10;;;;;;;25.71;64.51;98891.34;2053338;84;21053;-93
2022/06/28 04:20:44;;;;;;;5.10;4.70;;;;;;;26.23;63.20;98899.95;2043281;84;21113;-88
2022/06/28 04:23:44;;;;;;;4.90;4.42;;;;;;;26.74;61.41;98896.96;2054582;84;21651;-87
2022/06/28 04:26:45;;;;;;;7.00;5.00;;;;;;;26.90;59.96;98894.42;2053115;85;21021;-89
2022/06/28 04:29:46;;;;;;;7.65;5.95;;;;;;;26.78;58.53;98900.67;2050991;85;21043;-91
2022/06/28 04:32:46;;;;;;;6.33;5.37;;;;;;;26.47;58.61;98900.91;2048592;85;21056;-85
2022/06/28 04:35:47;;;;;;;5.58;5.12;;;;;;;26.27;58.81;98897.78;2039195;85;21541;-90
2022/06/28 04:38:48;;;;;;;5.62;5.12;;;;;;;26.06;58.86;98892.28;2063917;85;21049;-89
2022/06/28 04:41:48;;;;;;;5.55;4.95;;;;;;;26.25;59.24;98891.09;2054640;85;21553;-90
2022/06/28 04:44:49;;;;;;;4.87;4.40;;;;;;;26.47;58.80;98884.80;2029230;85;21074;-87
2022/06/28 04:47:50;;;;;;;7.30;5.15;;;;;;;26.44;58.18;98880.54;2059221;84;21132;-87
2022/06/28 04:50:50;;;;;;;5.85;5.25;;;;;;;26.50;57.80;98882.89;2052974;85;21021;-85
2022/06/28 04:53:51;;;;;;;9.13;5.22;;;;;;;26.51;57.55;98881.80;2063560;85;21038;-85
2022/06/28 04:56:52;;;;;;;5.75;4.67;;;;;;;26.42;57.41;98877.31;2074335;84;21536;-88
2022/06/28 04:59:52;;;;;;;15.45;5.80;;;;;;;26.84;56.84;98876.73;2071029;84;21057;-86
2022/06/28 05:02:53;;;;;;;5.72;5.20;;;;;;;27.34;55.79;98871.97;2068626;84;21056;-87
2022/06/28 05:05:54;;;;;;;5.08;4.67;;;;;;;27.83;54.96;98866.33;2073079;84;21041;-86
2022/06/28 05:08:56;;;;;;;9.58;4.85;;;;;;;28.25;53.65;98876.78;2075006;84;21544;-87
2022/06/28 05:11:56;;;;;;;6.03;5.55;;;;;;;28.28;52.98;98879.74;2049844;84;21149;-86
2022/06/28 05:14:57;;;;;;;9.80;5.53;;;;;;;28.59;51.45;98876.58;2042672;85;21438;-86
2022/06/28 05:17:58;;;;;;;11.85;5.92;;;;;;;28.25;52.17;98874.89;2033257;84;21667;-86
2022/06/28 05:20:59;;;;;;;5.15;4.83;;;;;;;28.14;52.20;98875.33;2048478;86;21497;-85
2022/06/28 05:24:00;;;;;;;5.97;5.47;;;;;;;28.35;52.03;98875.34;2051202;85;21068;-83
2022/06/28 05:27:00;;;;;;;5.40;4.97;;;;;;;28.52;52.02;98874.80;2047696;85;21006;-84
2022/06/28 05:30:01;;;;;;;6.10;5.50;;;;;;;28.60;51.34;98866.85;2056735;84;21017;-84
2022/06/28 05:33:03;;;;;;;6.10;5.47;;;;;;;28.58;51.18;98870.94;2079646;84;21017;-84
2022/06/28 05:36:04;;;;;;;5.35;4.78;;;;;;;28.71;51.20;98868.03;2064013;84;21120;-86
2022/06/28 05:39:05;;;;;;;6.10;5.53;;;;;;;28.81;51.21;98872.73;2054011;86;20991;-86
2022/06/28 05:42:05;;;;;;;5.92;5.05;;;;;;;28.92;51.45;98867.19;2055724;85;21025;-86
2022/06/28 05:45:06;;;;;;;6.17;5.58;;;;;;;29.13;51.15;98867.08;2056462;85;21584;-86
2022/06/28 05:48:07;;;;;;;6.25;5.17;;;;;;;29.28;51.02;98862.76;2055245;84;21057;-84
2022/06/28 05:51:08;;;;;;;5.95;5.55;;;;;;;29.11;50.95;98862.53;2053534;85;21549;-84
2022/06/28 05:54:08;;;;;;;6.22;5.65;;;;;;;28.67;51.36;98862.44;2031760;86;21077;-84
2022/06/28 05:57:09;;;;;;;6.08;5.50;;;;;;;28.51;51.95;98859.73;2036981;84;21035;-84
2022/06/28 06:00:10;;;;;;;6.83;6.22;;;;;;;28.67;52.48;98860.30;2060760;85;21065;-85
2022/06/28 06:03:10;;;;;;;5.85;5.42;;;;;;;28.67;52.30;98864.34;2064445;84;21085;-85
2022/06/28 06:06:11;;;;;;;7.30;6.72;;;;;;;28.49;52.42;98872.70;2041664;84;21086;-84
2022/06/28 06:09:12;;;;;;;6.53;6.10;;;;;;;28.09;53.14;98867.34;2053371;84;21540;-83
2022/06/28 06:12:13;;;;;;;6.45;5.85;;;;;;;28.07;53.80;98867.61;2028229;85;21086;-83
2022/06/28 06:15:14;;;;;;;7.15;6.33;;;;;;;27.93;54.35;98864.85;2016100;87;21632;-84
2022/06/28 06:18:15;;;;;;;6.67;6.03;;;;;;;27.63;54.85;98859.84;2031030;85;21093;-86
2022/06/28 06:21:16;;;;;;;7.53;6.15;;;;;;;27.51;55.82;98853.50;2044295;85;21377;-85
2022/06/28 06:24:16;;;;;;;7.08;6.37;;;;;;;27.31;56.38;98857.77;2045290;85;21120;-85
2022/06/28 06:27:17;;;;;;;6.50;6.03;;;;;;;27.40;56.87;98852.82;2059448;84;21025;-85
2022/06/28 06:30:18;;;;;;;7.25;6.15;;;;;;;27.50;56.97;98848.67;2048645;85;21040;-85
2022/06/28 06:33:18;;;;;;;6.67;6.08;;;;;;;27.60;56.91;98852.33;2049418;85;21847;-85
2022/06/28 06:36:19;;;;;;;28.47;8.33;;;;;;;27.71;56.76;98857.34;2036230;86;21029;-85
2022/06/28 06:39:20;;;;;;;7.00;6.60;;;;;;;27.92;56.98;98853.84;2010664;87;21097;-85
2022/06/28 06:42:21;;;;;;;7.40;6.65;;;;;;;28.13;57.21;98851.66;2043788;86;21019;-86
2022/06/28 06:45:21;;;;;;;10.95;6.92;;;;;;;28.33;57.45;98847.89;2062903;84;21613;-86
2022/06/28 06:48:22;;;;;;;6.12;5.65;;;;;;;28.65;56.75;98847.13;2062183;84;21068;-86
2022/06/28 06:51:23;;;;;;;6.05;5.42;;;;;;;29.06;56.49;98853.18;2069839;84;21538;-87
2022/06/28 06:54:24;;;;;;;6.90;6.30;;;;;;;29.48;55.72;98859.41;2061366;84;21064;-86
2022/06/28 06:57:24;;;;;;;6.10;5.70;;;;;;;29.90;55.39;98862.34;2067855;84;21580;-86
2022/06/28 07:00:25;;;;;;;7.12;6.42;;;;;;;30.24;54.50;98866.73;2071818;84;21014;-85
2022/06/28 07:03:26;;;;;;;9.20;5.92;;;;;;;30.33;54.07;98871.42;2070875;84;21072;-85
2022/06/28 07:06:27;;;;;;;31.80;8.78;;;;;;;30.17;53.89;98870.41;2054782;84;21533;-85
2022/06/28 07:09:27;;;;;;;6.40;5.83;;;;;;;29.96;53.82;98871.38;2052015;85;20992;-86
2022/06/28 07:12:28;;;;;;;6.87;6.10;;;;;;;29.81;54.55;98879.82;2030749;84;21051;-86
2022/06/28 07:15:31;;;;;;;6.97;6.37;;;;;;;29.81;54.17;98888.44;2053210;84;21093;-85
2022/06/28 07:18:32;;;;;;;7.08;6.25;;;;;;;29.78;54.28;98898.49;2075832;84;21130;-85
2022/06/28 07:21:33;;;;;;;7.47;6.87;;;;;;;29.71;54.41;98910.48;2036214;85;21537;-86
2022/06/28 07:24:33;;;;;;;6.42;5.80;;;;;;;29.86;54.34;98912.63;2098616;84;21055;-86
2022/06/28 07:27:34;;;;;;;12.58;6.17;;;;;;;29.97;54.28;98904.56;2109947;84;21047;-84
2022/06/28 07:30:35;;;;;;;6.50;6.00;;;;;;;30.11;54.03;98918.88;2062168;84;21023;-86
2022/06/28 07:33:36;;;;;;;8.48;6.37;;;;;;;30.36;53.16;98917.53;2061216;84;21335;-86
2022/06/28 07:36:36;;;;;;;7.40;6.35;;;;;;;30.46;52.90;98912.45;2078853;83;21106;-85
2022/06/28 07:39:37;;;;;;;17.57;8.78;;;;;;;30.58;52.53;98913.50;2099103;84;21109;-85
2022/06/28 07:42:38;;;;;;;7.20;6.62;;;;;;;30.72;52.09;98916.71;2095216;83;21036;-86
2022/06/28 07:45:40;;;;;;;8.63;6.72;;;;;;;30.78;50.81;98926.30;2093553;83;21604;-84
2022/06/28 07:48:40;;;;;;;6.80;6.17;;;;;;;30.73;50.01;98930.50;2079058;85;21077;-85
2022/06/28 07:55:00;;;;;;;7.37;6.78;;;;;;;30.67;48.79;98921.70;2082490;84;21124;-85
2022/06/28 07:58:01;;;;;;;7.17;6.37;;;;;;;30.64;48.88;98911.48;2090517;84;21573;-85
2022/06/28 08:01:02;;;;;;;8.18;6.87;;;;;;;30.71;48.32;98909.72;2083089;83;21132;-85
2022/06/28 08:04:02;;;;;;;7.87;7.10;;;;;;;30.71;47.29;98918.61;2082849;85;21072;-86
2022/06/28 08:07:03;;;;;;;6.70;6.10;;;;;;;30.63;47.65;98921.22;2089516;83;21085;-85
2022/06/28 08:10:03;;;;;;;7.50;6.67;;;;;;;30.71;47.59;98917.82;2078067;84;21048;-86
2022/06/28 08:13:04;;;;;;;10.63;7.15;;;;;;;30.77;47.56;98909.29;2089785;85;21068;-85
2022/06/28 08:16:05;;;;;;;7.65;6.97;;;;;;;30.80;47.74;98903.81;2088476;85;21517;-85
2022/06/28 08:19:06;;;;;;;7.67;7.03;;;;;;;30.84;47.40;98901.56;2089341;83;21096;-88
2022/06/28 08:22:07;;;;;;;8.53;7.83;;;;;;;30.86;47.46;98893.93;2083626;83;21536;-86
2022/06/28 08:25:07;;;;;;;8.65;7.87;;;;;;;30.88;47.70;98894.97;2093781;83;21572;-86
2022/06/28 08:28:08;;;;;;;7.33;6.72;;;;;;;30.95;47.84;98895.89;2079825;83;21547;-85
2022/06/28 08:31:09;;;;;;;7.87;7.17;;;;;;;30.94;47.39;98899.16;2065865;84;21060;-85
2022/06/28 08:34:09;;;;;;;7.10;6.00;;;;;;;31.00;47.64;98895.75;2064083;84;21040;-85
2022/06/28 08:37:10;;;;;;;7.58;6.95;;;;;;;31.05;47.65;98887.52;2094382;83;21088;-86
2022/06/28 08:40:11;;;;;;;7.28;6.78;;;;;;;31.04;46.70;98889.42;2102619;84;21001;-89
2022/06/28 08:43:12;;;;;;;7.20;6.50;;;;;;;31.11;46.99;98899.25;2106785;84;21037;-84
2022/06/28 08:46:12;;;;;;;6.35;5.85;;;;;;;31.11;46.35;98901.95;2101194;83;21020;-85
2022/06/28 08:49:13;;;;;;;97.85;91.02;;;;;;;31.13;45.10;98904.34;2092712;84;21037;-85
2022/06/28 08:52:14;;;;;;;121.37;112.88;;;;;;;31.12;45.78;98904.11;2098196;83;21049;-85
2022/06/28 08:55:15;;;;;;;10.55;9.75;;;;;;;31.10;45.64;98900.36;2105549;83;21623;-86
2022/06/28 08:58:15;;;;;;;37.60;34.30;;;;;;;31.12;44.60;98905.45;2098388;84;22178;-87
2022/06/28 09:01:16;;;;;;;17.25;15.65;;;;;;;31.15;44.60;98901.56;2101779;84;21044;-86
2022/06/28 09:04:17;;;;;;;27.80;25.23;;;;;;;31.18;44.39;98903.40;2098658;84;21048;-86
2022/06/28 09:07:18;;;;;;;9.70;8.90;;;;;;;31.21;44.73;98902.83;2095540;84;21556;-85
2022/06/28 09:10:18;;;;;;;7.22;6.47;;;;;;;31.24;44.17;98898.14;2092923;84;21069;-84
2022/06/28 09:13:20;;;;;;;14.73;13.43;;;;;;;31.20;43.97;98907.41;2102416;83;21018;-85
2022/06/28 09:16:21;;;;;;;11.55;10.55;;;;;;;31.20;44.53;98903.91;2105436;84;21092;-85
2022/06/28 09:19:22;;;;;;;11.57;10.38;;;;;;;31.21;44.79;98893.36;2105700;83;21063;-84
2022/06/28 09:22:23;;;;;;;8.30;7.70;;;;;;;31.18;44.43;98900.70;2092906;84;21016;-86
2022/06/28 09:25:23;;;;;;;8.00;7.30;;;;;;;31.20;44.71;98899.86;2105918;84;21085;-83
2022/06/28 09:28:24;;;;;;;7.25;6.60;;;;;;;31.20;44.72;98904.70;2099311;84;21092;-84
2022/06/28 09:31:27;;;;;;;8.58;7.30;;;;;;;31.26;44.84;98898.06;2079191;83;21595;-85
2022/06/28 09:34:27;;;;;;;6.55;6.05;;;;;;;31.37;44.39;98899.97;2087972;83;21086;-84
2022/06/28 09:37:28;;;;;;;10.00;6.25;;;;;;;31.45;44.10;98904.59;2081594;83;21041;-83
2022/06/28 09:40:33;;;;;;;7.25;6.65;;;;;;;31.43;43.30;98902.76;2093180;83;21014;-86
2022/06/28 09:43:32;;;;;;;8.83;7.85;;;;;;;31.36;43.75;98904.58;2083271;85;21053;-86
2022/06/28 09:46:32;;;;;;;7.12;6.62;;;;;;;31.43;44.67;98894.09;2093131;83;21136;-85
2022/06/28 09:49:34;;;;;;;6.55;5.90;;;;;;;31.51;44.48;98895.23;2093818;83;21021;-85
2022/06/28 09:52:34;;;;;;;6.92;6.42;;;;;;;31.61;44.41;98899.01;2079401;85;21665;-86
2022/06/28 09:55:35;;;;;;;7.75;7.15;;;;;;;31.66;44.11;98894.82;2088932;85;21075;-85
2022/06/28 09:58:36;;;;;;;6.55;5.95;;;;;;;31.71;44.40;98901.98;2093956;83;21024;-85
2022/06/28 10:01:37;;;;;;;6.58;5.42;;;;;;;31.75;44.04;98896.20;2093870;83;21037;-85
2022/06/28 10:04:37;;;;;;;6.15;5.60;;;;;;;31.82;43.99;98903.34;2088229;85;21034;-86
2022/06/28 10:07:38;;;;;;;7.25;6.62;;;;;;;31.87;44.07;98896.41;2089014;83;21060;-85
2022/06/28 10:10:40;;;;;;;6.85;6.20;;;;;;;31.93;44.44;98901.13;2094254;83;21048;-86
2022/06/28 10:17:04;;;;;;;13.38;6.00;;;;;;;31.92;44.21;98901.69;2094139;83;21559;-85
2022/06/28 10:20:03;;;;;;;9.30;8.40;;;;;;;32.04;43.73;98908.39;2084816;83;21097;-86
2022/06/28 10:23:04;;;;;;;6.40;5.90;;;;;;;32.23;43.90;98911.04;2078631;83;21057;-84
2022/06/28 10:26:04;;;;;;;10.18;9.20;;;;;;;32.48;43.65;98912.20;2088897;84;21540;-84
2022/06/28 10:29:05;;;;;;;8.70;7.25;;;;;;;32.76;43.61;98909.16;2093510;83;21523;-84
2022/06/28 10:32:06;;;;;;;6.58;6.12;;;;;;;33.02;43.37;98912.65;2090158;84;21097;-85
2022/06/28 10:35:06;;;;;;;7.50;6.20;;;;;;;33.19;42.97;98913.14;2088820;83;21033;-84
2022/06/28 10:38:07;;;;;;;8.38;7.58;;;;;;;33.31;42.47;98920.06;2078497;83;21029;-84
2022/06/28 10:41:08;;;;;;;7.65;6.22;;;;;;;33.38;42.68;98916.89;2084827;85;21057;-85
2022/06/28 10:44:09;;;;;;;7.42;6.87;;;;;;;33.49;42.50;98914.60;2089605;85;21060;-86
2022/06/28 10:47:10;;;;;;;8.25;5.50;;;;;;;33.58;41.83;98908.58;2088510;83;21168;-85
2022/06/28 10:50:11;;;;;;;6.30;5.70;;;;;;;33.59;41.88;98904.73;2083729;84;21030;-86
2022/06/28 10:53:12;;;;;;;7.55;6.97;;;;;;;33.61;41.68;98903.27;2087152;83;21168;-84
2022/06/28 10:56:13;;;;;;;5.80;5.40;;;;;;;33.61;41.25;98905.20;2086783;83;21066;-85
2022/06/28 10:59:14;;;;;;;6.55;5.78;;;;;;;33.58;41.41;98890.38;2088192;83;21093;-85
2022/06/28 11:02:14;;;;;;;8.48;7.67;;;;;;;33.59;41.33;98881.66;2088183;85;21041;-85
2022/06/28 11:05:15;;;;;;;6.60;6.20;;;;;;;33.58;41.59;98879.52;2084146;83;21579;-86
2022/06/28 11:08:16;;;;;;;6.72;6.12;;;;;;;33.56;41.85;98884.48;2093680;83;21053;-88
2022/06/28 11:11:17;;;;;;;7.15;6.58;;;;;;;33.48;41.66;98877.73;2078865;84;21057;-88
2022/06/28 11:14:17;;;;;;;7.90;7.30;;;;;;;33.34;41.57;98885.48;2077733;85;21536;-87
2022/06/28 11:17:18;;;;;;;7.15;6.55;;;;;;;33.21;41.33;98879.73;2087347;83;21093;-86
2022/06/28 11:20:22;;;;;;;7.42;6.83;;;;;;;33.09;41.56;98879.59;2084175;84;20982;-88
2022/06/28 11:23:23;;;;;;;8.60;7.90;;;;;;;33.03;41.97;98878.19;2091253;84;21100;-87
2022/06/28 11:29:43;;;;;;;9.00;7.75;;;;;;;32.81;43.14;98874.53;2080217;83;21065;-85
2022/06/28 11:32:43;;;;;;;8.78;8.00;;;;;;;32.85;43.37;98872.58;2088516;83;21077;-84
2022/06/28 11:35:44;;;;;;;11.48;7.30;;;;;;;32.88;44.05;98867.30;2088804;85;21072;-83
2022/06/28 11:38:45;;;;;;;7.65;7.05;;;;;;;32.86;43.96;98866.03;2088251;85;21057;-84
2022/06/28 11:41:46;;;;;;;8.18;7.67;;;;;;;32.82;43.73;98864.48;2084813;83;21069;-84
2022/06/28 11:44:47;;;;;;;7.80;7.30;;;;;;;32.82;43.89;98863.91;2088166;85;21081;-84
2022/06/28 11:47:47;;;;;;;9.25;8.38;;;;;;;32.83;43.71;98875.58;2087326;84;21089;-85
2022/06/28 11:50:48;;;;;;;8.63;8.03;;;;;;;32.93;44.42;98883.97;2080713;85;21133;-85
2022/06/28 11:53:49;;;;;;;10.08;9.18;;;;;;;33.02;44.42;98892.88;2061474;85;21116;-85
2022/06/28 11:56:49;;;;;;;9.85;8.85;;;;;;;32.99;44.57;98897.56;2064254;84;21532;-86
2022/06/28 11:59:50;;;;;;;10.08;9.33;;;;;;;32.99;44.71;98887.52;2087943;83;21068;-84
2022/06/28 12:02:55;;;;;;;10.45;9.55;;;;;;;32.91;44.89;98897.02;2088887;83;21049;-84
2022/06/28 12:05:53;;;;;;;10.75;9.95;;;;;;;32.76;45.16;98887.47;2104542;83;21160;-85
2022/06/28 12:08:55;;;;;;;10.90;9.85;;;;;;;32.59;45.71;98905.11;2084179;84;21061;-85
2022/06/28 12:11:56;;;;;;;11.73;10.68;;;;;;;32.43;46.41;98918.33;2101357;83;21179;-83
2022/06/28 12:14:57;;;;;;;12.20;10.93;;;;;;;32.07;46.72;98928.85;2085600;84;21089;-85
2022/06/28 12:17:58;;;;;;;12.13;11.18;;;;;;;31.75;47.62;98934.09;2085136;83;21481;-85
2022/06/28 12:20:59;;;;;;;15.05;12.10;;;;;;;31.34;48.63;98936.53;2084080;84;21033;-85
2022/06/28 12:23:59;;;;;;;13.30;12.20;;;;;;;30.95;49.55;98931.03;2096058;83;21057;-84
2022/06/28 12:27:00;;;;;;;13.75;11.75;;;;;;;30.56;50.84;98923.81;2089886;83;21028;-84
2022/06/28 12:30:01;;;;;;;12.30;11.35;;;;;;;30.13;52.92;98940.17;2094031;83;21505;-84
2022/06/28 12:33:01;;;;;;;129.75;20.70;;;;;;;29.85;53.31;99026.52;2086979;83;21037;-85
2022/06/28 12:36:02;;;;;;;18.90;5.12;;;;;;;29.36;48.66;99059.47;2093402;83;21611;-82
2022/06/28 12:39:03;;;;;;;14.38;4.62;;;;;;;28.63;48.64;99076.13;2072572;83;21092;-83
2022/06/28 12:42:03;;;;;;;20.35;5.75;;;;;;;27.98;49.29;99097.55;2046906;86;20982;-85
2022/06/28 12:45:04;;;;;;;13.40;4.42;;;;;;;27.33;50.51;99107.73;2033938;86;21068;-82
2022/06/28 12:48:04;;;;;;;3.77;2.92;;;;;;;26.76;54.43;99139.99;2055001;86;21026;-83
2022/06/28 12:51:05;;;;;;;4.72;3.12;;;;;;;26.18;55.86;99158.93;2043245;86;21048;-83
2022/06/28 12:54:06;;;;;;;7.28;3.27;;;;;;;25.63;57.36;99168.03;2032509;85;21520;-83
2022/06/28 12:57:06;;;;;;;4.42;3.00;;;;;;;25.14;57.12;99157.73;2043851;86;21018;-82
2022/06/28 13:00:07;;;;;;;13.40;4.75;;;;;;;24.80;57.66;99183.31;2048348;86;21021;-83
2022/06/28 13:03:08;;;;;;;11.20;5.25;;;;;;;24.52;59.60;99183.97;2059139;86;21096;-83
2022/06/28 13:06:08;;;;;;;11.00;3.80;;;;;;;24.24;63.36;99167.71;2052462;86;21556;-85
2022/06/28 13:09:09;;;;;;;3.80;1.95;;;;;;;23.88;64.04;99153.80;2037942;85;21079;-83
2022/06/28 13:12:09;;;;;;;4.28;2.30;;;;;;;23.58;64.25;99151.09;2042874;86;21055;-92
2022/06/28 13:15:10;;;;;;;2.37;2.25;;;;;;;23.32;64.32;99164.76;2032238;86;21072;-87
2022/06/28 13:18:11;;;;;;;2.05;1.95;;;;;;;23.04;66.07;99194.33;2029034;86;21138;-86
2022/06/28 13:21:11;;;;;;;5.58;3.47;;;;;;;22.55;72.90;99191.54;2041948;85;21164;-84
2022/06/28 13:24:12;;;;;;;8.15;5.25;;;;;;;21.94;78.92;99154.58;2040351;86;21052;-84
2022/06/28 13:27:13;;;;;;;6.65;3.17;;;;;;;21.53;78.42;99113.95;2041540;86;21069;-86
2022/06/28 13:30:13;;;;;;;4.75;4.08;;;;;;;21.38;76.37;99079.06;2032043;86;22335;-85
2022/06/28 13:33:14;;;;;;;5.47;3.62;;;;;;;21.39;77.95;99049.52;2056383;86;21116;-86
2022/06/28 13:36:15;;;;;;;4.28;3.87;;;;;;;21.37;78.33;99007.68;2051451;86;21048;-85
2022/06/28 13:39:15;;;;;;;3.83;3.42;;;;;;;21.37;81.84;98997.55;2057465;85;20996;-85
2022/06/28 13:42:16;;;;;;;4.03;3.72;;;;;;;21.36;81.43;98984.77;2057785;84;21465;-84
2022/06/28 13:45:17;;;;;;;4.05;3.75;;;;;;;21.29;85.26;98972.94;2054578;85;21080;-86
2022/06/28 13:48:18;;;;;;;6.12;5.62;;;;;;;21.35;88.51;98964.52;2061315;84;21132;-85
2022/06/28 13:51:19;;;;;;;6.37;5.47;;;;;;;21.46;91.47;98958.28;2054930;84;20989;-85
2022/06/28 13:54:20;;;;;;;8.15;6.95;;;;;;;21.50;90.76;98982.06;2050726;85;21072;-86
2022/06/28 13:57:25;;;;;;;10.18;6.30;;;;;;;21.44;95.12;98996.88;2073056;84;21571;-85
2022/06/28 14:00:24;;;;;;;6.78;6.25;;;;;;;21.33;100.00;99011.89;2067740;84;21542;-86
2022/06/28 14:03:25;;;;;;;7.08;6.47;;;;;;;21.26;100.00;99013.38;2066783;84;21072;-87
2022/06/28 14:06:26;;;;;;;8.25;7.37;;;;;;;21.23;100.00;99005.84;2078072;83;22203;-86
2022/06/28 14:09:27;;;;;;;7.72;7.03;;;;;;;21.33;100.00;98988.45;2062695;84;21031;-86
2022/06/28 14:12:27;;;;;;;8.05;7.15;;;;;;;21.42;100.00;98967.02;2072267;83;21004;-86
2022/06/28 14:15:30;;;;;;;9.18;7.78;;;;;;;21.50;100.00;98983.39;2071658;83;21557;-86
2022/06/28 14:18:30;;;;;;;8.05;7.50;;;;;;;21.63;100.00;99008.08;2078823;83;21137;-87
2022/06/28 14:21:31;;;;;;;9.55;8.65;;;;;;;21.71;100.00;99002.34;2088835;83;21516;-86
2022/06/28 14:24:32;;;;;;;8.68;7.83;;;;;;;21.77;100.00;98993.38;2090105;83;21056;-87